Bookmark and Share
Track history (hours):
 

Svitzer Marysville

Last reported at 2014-Apr-18 10:33 UTC. Time now 2014-Apr-18 10:49 UTC.
Position S 37°51' E 144°54'.

Length 22 m; draft 5.8 m.

Type: Tug. MMSI: 503546100.

NotesDate/timePositionNaut miles runAvg speedWind from/ knotsBaromVisibWave heightAir tempDewpointWater temp
2014-Apr-18 10:33S 37°51' E 144°54'1 1.0
2014-Apr-18 09:33S 37°52' E 144°55'3 0.6
2014-Apr-18 05:27S 37°49' E 144°55'0 0.5
2014-Apr-18 04:33S 37°49' E 144°55'1 0.6
2014-Apr-18 03:33S 37°49' E 144°55'2 2.5
2014-Apr-18 02:33S 37°51' E 144°55'2 1.9
2014-Apr-18 01:33S 37°49' E 144°55'0 0.0
2014-Apr-18 00:33S 37°49' E 144°55'0 0.0
2014-Apr-17 23:33S 37°49' E 144°55'0 0.0
2014-Apr-17 22:33S 37°49' E 144°55'2 2.0
2014-Apr-17 21:33S 37°51' E 144°54'2 1.6
2014-Apr-17 20:33S 37°52' E 144°56'3 3.1
2014-Apr-17 19:33S 37°49' E 144°55'0 0.0
2014-Apr-17 18:33S 37°49' E 144°55'0 0.0
2014-Apr-17 17:33S 37°49' E 144°55'0 0.0
2014-Apr-17 16:33S 37°49' E 144°55'0 0.0
2014-Apr-17 15:33S 37°49' E 144°55'0 0.0
2014-Apr-17 14:33S 37°49' E 144°55'0 0.0
2014-Apr-17 13:33S 37°49' E 144°55'0 0.0
2014-Apr-17 12:33S 37°49' E 144°55'0 0.0
2014-Apr-17 11:33S 37°49' E 144°55'2 2.1
2014-Apr-17 10:33S 37°51' E 144°55'2 2.1
2014-Apr-17 09:33S 37°49' E 144°55'0 0.4
2014-Apr-17 08:29S 37°49' E 144°55'2 1.8
2014-Apr-17 07:28S 37°51' E 144°54'0 0.1
2014-Apr-17 06:28S 37°51' E 144°55'2 2.2
2014-Apr-17 05:32S 37°49' E 144°55'1 0.5
2014-Apr-17 04:32S 37°49' E 144°55'0 0.0
2014-Apr-17 03:32S 37°49' E 144°55'0 0.0
2014-Apr-17 02:32S 37°49' E 144°55'0 0.0
2014-Apr-17 01:32S 37°49' E 144°55'0 0.0
2014-Apr-17 00:32S 37°49' E 144°55'0 0.0
2014-Apr-16 23:32S 37°49' E 144°55'0 0.0
2014-Apr-16 22:32S 37°49' E 144°55'0 0.0
2014-Apr-16 21:32S 37°49' E 144°55'0 0.0
2014-Apr-16 20:32S 37°49' E 144°55'0 0.0
2014-Apr-16 19:32S 37°49' E 144°55'1 1.4
2014-Apr-16 18:33S 37°50' E 144°54'1 0.7
2014-Apr-16 17:32S 37°51' E 144°54'0 0.0
2014-Apr-16 16:32S 37°51' E 144°54'0 0.0
2014-Apr-16 15:32S 37°51' E 144°54'0 0.1
2014-Apr-16 14:31S 37°51' E 144°54'1 0.7
2014-Apr-16 13:33S 37°50' E 144°54'1 1.4
2014-Apr-16 12:33S 37°49' E 144°55'0 0.4
2014-Apr-16 11:30S 37°49' E 144°55'0 0.4
2014-Apr-16 10:30S 37°49' E 144°55'0 0.0
2014-Apr-16 09:24S 37°49' E 144°55'0 0.0
2014-Apr-16 08:30S 37°49' E 144°55'0 0.0
2014-Apr-16 07:30S 37°49' E 144°55'0 0.0
2014-Apr-16 06:30S 37°49' E 144°55'0 0.0
2014-Apr-16 05:30S 37°49' E 144°55'0 0.0
2014-Apr-16 04:30S 37°49' E 144°55'0 0.0
2014-Apr-16 03:30S 37°49' E 144°55'2 1.7
2014-Apr-16 02:33S 37°51' E 144°54'2 1.9
2014-Apr-16 01:33S 37°52' E 144°55'3 2.9
2014-Apr-16 00:33S 37°49' E 144°55'0 0.0
2014-Apr-15 23:33S 37°49' E 144°55'0 0.0
2014-Apr-15 22:33S 37°49' E 144°55'1 0.5
2014-Apr-15 21:33S 37°49' E 144°55'2 2.3
2014-Apr-15 20:33S 37°51' E 144°55'2 1.9
2014-Apr-15 19:33S 37°49' E 144°55'2 1.8
2014-Apr-15 18:33S 37°51' E 144°55'2 2.0
2014-Apr-15 17:33S 37°49' E 144°55'0 0.2
2014-Apr-15 16:28S 37°49' E 144°55'0 0.0
2014-Apr-15 15:28S 37°49' E 144°55'0 0.0
2014-Apr-15 14:28S 37°49' E 144°55'0 0.0
2014-Apr-15 11:30S 37°49' E 144°55'1 1.5
2014-Apr-15 10:34S 37°50' E 144°54'1 1.4
2014-Apr-15 09:32S 37°49' E 144°55'1 0.8
2014-Apr-15 08:32S 37°49' E 144°54'0 0.5
2014-Apr-15 07:34S 37°50' E 144°54'1 0.9
2014-Apr-15 06:31S 37°51' E 144°54'2 1.7
2014-Apr-15 05:34S 37°49' E 144°55'4 1.8
2014-Apr-15 03:34S 37°53' E 144°56'4 1.7
2014-Apr-15 01:31S 37°49' E 144°55'0 0.0
2014-Apr-15 00:31S 37°49' E 144°55'0 0.0
2014-Apr-14 23:31S 37°49' E 144°55'0 0.0
2014-Apr-14 22:31S 37°49' E 144°55'0 0.0
2014-Apr-14 21:31S 37°49' E 144°55'0 0.0
2014-Apr-14 20:31S 37°49' E 144°55'1 0.7
2014-Apr-14 19:34S 37°49' E 144°55'1 0.7
2014-Apr-14 18:34S 37°49' E 144°54'2 1.7
2014-Apr-14 17:33S 37°51' E 144°55'1 1.5
2014-Apr-14 16:34S 37°49' E 144°54'1 0.8
2014-Apr-14 15:31S 37°49' E 144°55'0 0.0
2014-Apr-14 14:31S 37°49' E 144°55'0 0.0
2014-Apr-14 13:31S 37°49' E 144°55'0 0.0
2014-Apr-14 11:31S 37°49' E 144°55'0 0.0
2014-Apr-14 10:31S 37°49' E 144°55'3 2.5
2014-Apr-14 09:30S 37°52' E 144°55'3 0.1
2014-Apr-13 15:20S 37°49' E 144°55'0 0.0
2014-Apr-13 14:32S 37°49' E 144°55'0 0.0
2014-Apr-13 13:32S 37°49' E 144°55'0 0.0
2014-Apr-13 12:33S 37°49' E 144°55'0 0.3
2014-Apr-13 11:33S 37°49' E 144°55'0 0.4
2014-Apr-13 10:33S 37°49' E 144°54'1 0.5
2014-Apr-13 09:28S 37°49' E 144°55'0 0.1
2014-Apr-13 08:29S 37°49' E 144°55'0 0.0
2014-Apr-13 07:29S 37°49' E 144°55'0 0.0
2014-Apr-13 06:29S 37°49' E 144°55'1 0.5
2014-Apr-13 05:32S 37°49' E 144°55'0 0.0
2014-Apr-13 04:32S 37°49' E 144°55'0 0.1
2014-Apr-13 03:33S 37°49' E 144°55'2 2.4
2014-Apr-13 02:33S 37°51' E 144°54'2 1.7
2014-Apr-13 01:28S 37°49' E 144°55'0 0.0
2014-Apr-13 00:28S 37°49' E 144°55'0 0.0
2014-Apr-12 23:28S 37°49' E 144°55'1 1.7
2014-Apr-12 22:33S 37°51' E 144°56'1 1.1
2014-Apr-12 21:33S 37°51' E 144°55'2 2.0
2014-Apr-12 20:30S 37°49' E 144°55'0 0.0
2014-Apr-12 19:30S 37°49' E 144°55'0 0.0
2014-Apr-12 18:29S 37°49' E 144°55'0 0.0
2014-Apr-12 17:30S 37°49' E 144°55'0 0.0
2014-Apr-12 16:30S 37°49' E 144°55'0 0.0
2014-Apr-12 15:30S 37°49' E 144°55'0 0.0
2014-Apr-12 14:29S 37°49' E 144°55'0 0.0
2014-Apr-12 13:30S 37°49' E 144°55'0 0.3
2014-Apr-12 12:29S 37°49' E 144°55'3 2.8
2014-Apr-12 11:29S 37°52' E 144°55'1 0.8
2014-Apr-12 10:33S 37°52' E 144°56'1 0.7
2014-Apr-12 09:33S 37°52' E 144°55'2 1.7
2014-Apr-12 08:33S 37°50' E 144°54'1 1.5
2014-Apr-12 07:33S 37°49' E 144°55'0 0.3
2014-Apr-12 06:31S 37°49' E 144°55'0 0.0
2014-Apr-12 05:31S 37°49' E 144°55'0 0.0
2014-Apr-12 04:31S 37°49' E 144°55'0 0.0
2014-Apr-12 03:25S 37°49' E 144°55'0 0.3
2014-Apr-12 02:33S 37°49' E 144°55'0 0.3
2014-Apr-12 01:30S 37°49' E 144°55'0 0.0
2014-Apr-12 00:30S 37°49' E 144°55'0 0.0
2014-Apr-11 23:30S 37°49' E 144°55'0 0.0
2014-Apr-11 22:24S 37°49' E 144°55'0 0.0
2014-Apr-11 21:30S 37°49' E 144°55'0 0.0
2014-Apr-11 20:30S 37°49' E 144°55'0 0.0
2014-Apr-11 19:30S 37°49' E 144°55'0 0.0
2014-Apr-11 18:30S 37°49' E 144°55'2 1.5
2014-Apr-11 17:28S 37°51' E 144°54'0 0.0
2014-Apr-11 16:28S 37°51' E 144°54'1 1.5
2014-Apr-11 15:33S 37°49' E 144°54'0 0.5
2014-Apr-11 14:33S 37°49' E 144°55'0 0.5
2014-Apr-11 13:33S 37°49' E 144°54'1 0.6
2014-Apr-11 12:34S 37°49' E 144°55'0 0.0
2014-Apr-11 11:33S 37°49' E 144°55'0 0.0
2014-Apr-11 10:33S 37°49' E 144°55'2 2.0
2014-Apr-11 09:33S 37°51' E 144°55'1 0.7
2014-Apr-11 08:34S 37°51' E 144°54'2 1.7
2014-Apr-11 07:33S 37°49' E 144°55'2 1.7
2014-Apr-11 06:34S 37°51' E 144°55'1 1.1
2014-Apr-11 05:34S 37°52' E 144°55'1 1.3
2014-Apr-11 04:34S 37°51' E 144°54'0 0.0
2014-Apr-11 03:34S 37°51' E 144°54'1 1.3
2014-Apr-11 02:34S 37°52' E 144°55'3 2.7
2014-Apr-11 01:34S 37°49' E 144°55'2 2.2
2014-Apr-11 00:34S 37°51' E 144°55'0 0.4
2014-Apr-10 23:34S 37°52' E 144°55'2 2.4
2014-Apr-10 22:32S 37°49' E 144°55'0 0.0
2014-Apr-10 21:32S 37°49' E 144°55'0 0.0
2014-Apr-10 20:32S 37°49' E 144°55'0 0.1
2014-Apr-10 19:33S 37°49' E 144°55'2 1.4
2014-Apr-10 18:28S 37°51' E 144°54'0 0.3
2014-Apr-10 17:33S 37°51' E 144°55'2 1.9
2014-Apr-10 16:30S 37°49' E 144°55'3 3.1
2014-Apr-10 15:33S 37°52' E 144°55'3 2.5
2014-Apr-10 14:29S 37°49' E 144°55'0 0.0
2014-Apr-10 13:29S 37°49' E 144°55'0 0.0
2014-Apr-10 12:29S 37°49' E 144°55'1 0.7
2014-Apr-10 11:33S 37°49' E 144°55'2 2.2
2014-Apr-10 10:33S 37°51' E 144°54'2 1.7
2014-Apr-10 09:32S 37°49' E 144°55'0 0.0
2014-Apr-10 08:32S 37°49' E 144°55'0 0.2
2014-Apr-10 07:33S 37°49' E 144°55'0 0.2
2014-Apr-10 06:33S 37°49' E 144°55'0 0.0
2014-Apr-10 05:27S 37°49' E 144°55'1 1.4
2014-Apr-10 04:33S 37°50' E 144°54'0 0.3
2014-Apr-10 03:33S 37°50' E 144°54'1 1.0
2014-Apr-10 02:30S 37°49' E 144°55'0 0.0
2014-Apr-10 01:30S 37°49' E 144°55'0 0.0
2014-Apr-10 00:30S 37°49' E 144°55'1 1.2
2014-Apr-09 23:33S 37°50' E 144°54'3 2.6
2014-Apr-09 22:31S 37°52' E 144°56'3 3.0
2014-Apr-09 21:31S 37°49' E 144°55'0 0.1
2014-Apr-09 20:31S 37°49' E 144°55'1 0.6
2014-Apr-09 19:32S 37°49' E 144°55'1 0.6
2014-Apr-09 18:32S 37°49' E 144°55'0 0.0
2014-Apr-09 17:32S 37°49' E 144°55'0 0.0
2014-Apr-09 16:32S 37°49' E 144°55'0 0.0
2014-Apr-09 15:32S 37°49' E 144°55'0 0.0
2014-Apr-09 14:32S 37°49' E 144°55'0 0.0
2014-Apr-09 13:33S 37°49' E 144°55'2 1.6
2014-Apr-09 12:34S 37°51' E 144°54'2 1.6
2014-Apr-09 11:33S 37°49' E 144°55'0 0.5
2014-Apr-09 10:33S 37°49' E 144°55'0 0.5
2014-Apr-09 09:32S 37°49' E 144°55'0 0.0
2014-Apr-09 08:32S 37°49' E 144°55'0 0.0
2014-Apr-09 07:32S 37°49' E 144°55'0 0.0
2014-Apr-09 06:32S 37°49' E 144°55'0 0.0
2014-Apr-09 05:32S 37°49' E 144°55'0 0.0
2014-Apr-09 04:32S 37°49' E 144°55'2 1.8
2014-Apr-09 03:33S 37°51' E 144°54'1 1.3
2014-Apr-09 02:32S 37°52' E 144°55'2 2.5
2014-Apr-09 01:33S 37°49' E 144°54'1 0.6
2014-Apr-09 00:19S 37°49' E 144°55'0 0.0
2014-Apr-08 21:31S 37°49' E 144°55'0 0.1
2014-Apr-08 20:31S 37°49' E 144°55'0 0.0
2014-Apr-08 19:31S 37°49' E 144°55'1 0.6
2014-Apr-08 18:28S 37°49' E 144°55'2 2.7
2014-Apr-08 17:33S 37°51' E 144°54'1 1.1
2014-Apr-08 16:33S 37°50' E 144°54'0 0.4
2014-Apr-08 15:33S 37°51' E 144°54'2 1.8
2014-Apr-08 14:33S 37°52' E 144°55'2 2.4
2014-Apr-08 13:33S 37°50' E 144°54'1 1.1
2014-Apr-08 12:29S 37°49' E 144°55'0 0.0
2014-Apr-08 11:29S 37°49' E 144°55'  

Dump ship's entire track history

sailing weather and tide predictions

Svitzer Marysville — VHDP — position and weather